Ship Status Report: callsign CH.16

sailwx.info

Track history (hours):
 
Tides and Currents Weather Stations Pressure Air Temp Water Temp Dewpoint Dewpoint Depression Visibility Wind Speed Wind Dir Waves Ship Positions

Callsign CH.16 (name unknown)

Last reported at 2014-Sep-05 20:12 UTC. Time now 2014-Sep-17 13:37 UTC.
Position N 42°02' W 065°34'.
Warning: this ship's position is 11 days out of date.

Length 15 m.

Type: Fishing. MMSI: 316003152.

Date/timePositionNaut miles runAvg speedWind from/ knotsBaromVisibWave heightAir tempDewpointWater temp
2014-Sep-05 20:12N 42°02' W 065°34'3653.2
2014-Sep-05 19:31N 42°05' W 066°23'3727.1
2014-Sep-05 18:10N 42°05' W 065°34'255.5
2014-Sep-05 18:08N 42°03' W 065°34'4315.0
2014-Sep-05 15:18N 42°25' W 064°45'86 3.6
2014-Sep-04 15:18N 43°38' W 065°46'  
2014-Aug-30 10:33N 44°27' W 063°29'  
2014-Aug-27 13:06N 42°09' W 066°40'0 0.2
2014-Aug-27 12:32N 42°09' W 066°40'2151685.2
2014-Aug-27 12:25N 44°11' W 062°37'182722.7
2014-Aug-27 12:10N 42°05' W 065°37'4843.7
2014-Aug-27 11:03N 42°08' W 066°42'1 1.2
2014-Aug-27 10:23N 42°09' W 066°43'4739.2
2014-Aug-27 09:11N 42°07' W 065°40'371.9
2014-Aug-27 09:09N 42°05' W 065°37'2 1.0
2014-Aug-27 07:30N 42°07' W 065°38'1912492.8
2014-Aug-27 07:25N 44°18' W 062°27'193588.3
2014-Aug-27 07:06N 42°06' W 065°40'1 0.9
2014-Aug-27 05:30N 42°07' W 065°38'85322.6
2014-Aug-27 05:14N 43°32' W 065°44'1527686.8
2014-Aug-27 05:13N 44°20' W 062°25'23187.1
2014-Aug-27 02:33N 42°09' W 066°46'177157.5
2014-Aug-27 01:26N 43°56' W 063°33'6 6.8
2014-Aug-27 00:33N 44°02' W 063°33'1064551.5
2014-Aug-27 00:32N 43°43' W 065°58'101366.1
2014-Aug-27 00:15N 42°09' W 066°46'2801416.1
2014-Aug-27 00:03N 43°21' W 060°39'  
Track history (hours):
 
Tides and Currents Weather Stations Pressure Air Temp Water Temp Dewpoint Dewpoint Depression Visibility Wind Speed Wind Dir Waves Ship Positions

Callsign CH.16 (name unknown)

Last reported at 2014-Sep-05 20:12 UTC. Time now 2014-Sep-17 13:37 UTC.
Position N 42°02' W 065°34'.
Warning: this ship's position is 11 days out of date.

Length 15 m.

Type: Fishing. MMSI: 316003152.

Date/timePositionNaut miles runAvg speedWind from/ knotsBaromVisibWave heightAir tempDewpointWater temp
2014-Sep-05 20:12N 42°02' W 065°34'3653.2
2014-Sep-05 19:31N 42°05' W 066°23'3727.1
2014-Sep-05 18:10N 42°05' W 065°34'255.5
2014-Sep-05 18:08N 42°03' W 065°34'4315.0
2014-Sep-05 15:18N 42°25' W 064°45'86 3.6
2014-Sep-04 15:18N 43°38' W 065°46'  
2014-Aug-30 10:33N 44°27' W 063°29'  
2014-Aug-27 13:06N 42°09' W 066°40'0 0.2
2014-Aug-27 12:32N 42°09' W 066°40'2151685.2
2014-Aug-27 12:25N 44°11' W 062°37'182722.7
2014-Aug-27 12:10N 42°05' W 065°37'4843.7
2014-Aug-27 11:03N 42°08' W 066°42'1 1.2
2014-Aug-27 10:23N 42°09' W 066°43'4739.2
2014-Aug-27 09:11N 42°07' W 065°40'371.9
2014-Aug-27 09:09N 42°05' W 065°37'2 1.0
2014-Aug-27 07:30N 42°07' W 065°38'1912492.8
2014-Aug-27 07:25N 44°18' W 062°27'193588.3
2014-Aug-27 07:06N 42°06' W 065°40'1 0.9
2014-Aug-27 05:30N 42°07' W 065°38'85322.6
2014-Aug-27 05:14N 43°32' W 065°44'1527686.8
2014-Aug-27 05:13N 44°20' W 062°25'23187.1
2014-Aug-27 02:33N 42°09' W 066°46'177157.5
2014-Aug-27 01:26N 43°56' W 063°33'6 6.8
2014-Aug-27 00:33N 44°02' W 063°33'1064551.5
2014-Aug-27 00:32N 43°43' W 065°58'101366.1
2014-Aug-27 00:15N 42°09' W 066°46'2801416.1
2014-Aug-27 00:03N 43°21' W 060°39'  

Dump ship's entire track history